EDLV/NRN METAR and TAF weather

Enter ICAO airport designator
Station Type Date Time Source
EDLV METAR 2022/01/25 04:50 UTC NOAA

EDLV 250450Z VRB02KT 9999 BKN017 04/01 Q1033


Station Type Date Time Source
EDLV Decoded METAR 2022/01/25 04:50 UTC NOAA

Niederrhein, Germany (EDLV) 51-36-09N 006-08-32E
Jan 24, 2022 - 11:50 PM EST / 2022.01.25 0450 UTC
Wind: Variable at 2 MPH (2 KT):0
Visibility: greater than 7 mile(s):0
Sky conditions: mostly cloudy
Temperature: 39 F (4 C)
Dew Point: 33 F (1 C)
Relative Humidity: 80%
Pressure (altimeter): 30.50 in. Hg (1033 hPa)
ob: EDLV 250450Z VRB02KT 9999 BKN017 04/01 Q1033
cycle: 5

Station Type Date Time Source
EDLV TAF 2022/01/25 04:24 UTC NOAA

TAF
AMD TAF
AMD EDLV 250413Z 2504/2524 VRB02KT 9999 BKN015 PROB30
TEMPO 2521/2524 3000 BR BKN004

Example: see airport list